sensor_id;sensor_type;location;lat;lon;timestamp;temperature;humidity
68648;SHT31;55632;51.962;16.116;2023-02-18T00:02:31;8.35;62.47
68648;SHT31;55632;51.962;16.116;2023-02-18T00:07:34;8.30;62.81
68648;SHT31;55632;51.962;16.116;2023-02-18T00:12:40;8.26;62.94
68648;SHT31;55632;51.962;16.116;2023-02-18T00:17:47;8.16;63.23
68648;SHT31;55632;51.962;16.116;2023-02-18T00:22:47;8.10;63.44
68648;SHT31;55632;51.962;16.116;2023-02-18T00:27:52;8.06;63.66
68648;SHT31;55632;51.962;16.116;2023-02-18T00:32:53;7.97;63.85
68648;SHT31;55632;51.962;16.116;2023-02-18T00:37:57;7.91;63.94
68648;SHT31;55632;51.962;16.116;2023-02-18T00:42:58;7.90;63.89
68648;SHT31;55632;51.962;16.116;2023-02-18T00:48:01;7.83;63.98
68648;SHT31;55632;51.962;16.116;2023-02-18T00:53:05;7.77;64.13
68648;SHT31;55632;51.962;16.116;2023-02-18T00:58:06;7.75;64.29
68648;SHT31;55632;51.962;16.116;2023-02-18T01:03:07;7.70;64.47
68648;SHT31;55632;51.962;16.116;2023-02-18T01:08:09;7.60;64.72
68648;SHT31;55632;51.962;16.116;2023-02-18T01:13:12;7.53;65.00
68648;SHT31;55632;51.962;16.116;2023-02-18T01:18:13;7.46;65.16
68648;SHT31;55632;51.962;16.116;2023-02-18T01:23:15;7.40;65.39
68648;SHT31;55632;51.962;16.116;2023-02-18T01:28:16;7.39;65.50
68648;SHT31;55632;51.962;16.116;2023-02-18T01:33:19;7.38;65.55
68648;SHT31;55632;51.962;16.116;2023-02-18T01:38:23;7.30;65.93
68648;SHT31;55632;51.962;16.116;2023-02-18T01:43:28;7.26;66.33
68648;SHT31;55632;51.962;16.116;2023-02-18T01:48:33;7.23;66.66
68648;SHT31;55632;51.962;16.116;2023-02-18T01:53:42;7.21;66.90
68648;SHT31;55632;51.962;16.116;2023-02-18T01:58:47;7.12;67.26
68648;SHT31;55632;51.962;16.116;2023-02-18T02:03:49;7.11;67.55
68648;SHT31;55632;51.962;16.116;2023-02-18T02:08:55;7.05;67.75
68648;SHT31;55632;51.962;16.116;2023-02-18T02:46:39;6.76;69.40
68648;SHT31;55632;51.962;16.116;2023-02-18T03:14:09;6.56;70.02
68648;SHT31;55632;51.962;16.116;2023-02-18T03:19:37;6.54;70.09
68648;SHT31;55632;51.962;16.116;2023-02-18T03:24:50;6.53;70.05
68648;SHT31;55632;51.962;16.116;2023-02-18T03:35:09;6.45;70.19
68648;SHT31;55632;51.962;16.116;2023-02-18T03:40:15;6.45;70.30
68648;SHT31;55632;51.962;16.116;2023-02-18T03:45:17;6.46;70.33
68648;SHT31;55632;51.962;16.116;2023-02-18T03:50:18;6.43;70.27
68648;SHT31;55632;51.962;16.116;2023-02-18T03:55:19;6.43;70.23
68648;SHT31;55632;51.962;16.116;2023-02-18T04:00:23;6.42;70.24
68648;SHT31;55632;51.962;16.116;2023-02-18T04:05:24;6.39;70.18
68648;SHT31;55632;51.962;16.116;2023-02-18T04:10:24;6.38;70.13
68648;SHT31;55632;51.962;16.116;2023-02-18T04:15:27;6.35;70.07
68648;SHT31;55632;51.962;16.116;2023-02-18T04:20:31;6.34;70.03
68648;SHT31;55632;51.962;16.116;2023-02-18T04:25:35;6.31;70.03
68648;SHT31;55632;51.962;16.116;2023-02-18T04:30:37;6.31;70.10
68648;SHT31;55632;51.962;16.116;2023-02-18T04:35:38;6.28;70.20
68648;SHT31;55632;51.962;16.116;2023-02-18T04:40:43;6.22;70.27
68648;SHT31;55632;51.962;16.116;2023-02-18T04:45:50;6.22;70.32
68648;SHT31;55632;51.962;16.116;2023-02-18T04:50:51;6.15;70.48
68648;SHT31;55632;51.962;16.116;2023-02-18T04:55:54;6.11;70.62
68648;SHT31;55632;51.962;16.116;2023-02-18T05:01:02;6.14;70.64
68648;SHT31;55632;51.962;16.116;2023-02-18T05:06:03;6.13;70.66
68648;SHT31;55632;51.962;16.116;2023-02-18T05:11:06;6.11;70.76
68648;SHT31;55632;51.962;16.116;2023-02-18T05:16:07;6.13;70.64
68648;SHT31;55632;51.962;16.116;2023-02-18T05:21:08;6.15;70.57
68648;SHT31;55632;51.962;16.116;2023-02-18T05:26:09;6.15;70.57
68648;SHT31;55632;51.962;16.116;2023-02-18T05:31:12;6.14;70.49
68648;SHT31;55632;51.962;16.116;2023-02-18T05:36:13;6.13;70.56
68648;SHT31;55632;51.962;16.116;2023-02-18T05:41:16;6.11;70.55
68648;SHT31;55632;51.962;16.116;2023-02-18T05:46:17;6.11;70.64
68648;SHT31;55632;51.962;16.116;2023-02-18T05:51:20;6.11;70.59
68648;SHT31;55632;51.962;16.116;2023-02-18T05:56:21;6.11;70.71
68648;SHT31;55632;51.962;16.116;2023-02-18T06:01:22;6.13;70.72
68648;SHT31;55632;51.962;16.116;2023-02-18T06:06:25;6.17;70.65
68648;SHT31;55632;51.962;16.116;2023-02-18T06:11:30;6.24;70.34
68648;SHT31;55632;51.962;16.116;2023-02-18T06:16:31;6.32;69.84
68648;SHT31;55632;51.962;16.116;2023-02-18T06:21:32;6.39;69.71
68648;SHT31;55632;51.962;16.116;2023-02-18T06:26:33;6.42;69.61
68648;SHT31;55632;51.962;16.116;2023-02-18T06:31:34;6.50;69.30
68648;SHT31;55632;51.962;16.116;2023-02-18T06:36:34;6.57;68.77
68648;SHT31;55632;51.962;16.116;2023-02-18T06:41:35;6.62;68.70
68648;SHT31;55632;51.962;16.116;2023-02-18T06:46:36;6.69;68.26
68648;SHT31;55632;51.962;16.116;2023-02-18T06:51:37;6.77;67.77
68648;SHT31;55632;51.962;16.116;2023-02-18T06:56:38;6.88;67.47
68648;SHT31;55632;51.962;16.116;2023-02-18T07:01:39;6.94;66.84
68648;SHT31;55632;51.962;16.116;2023-02-18T07:06:40;7.00;66.63
68648;SHT31;55632;51.962;16.116;2023-02-18T07:11:40;7.05;66.38
68648;SHT31;55632;51.962;16.116;2023-02-18T07:16:41;7.14;66.22
68648;SHT31;55632;51.962;16.116;2023-02-18T07:21:45;7.14;65.53
68648;SHT31;55632;51.962;16.116;2023-02-18T07:26:46;7.21;65.32
68648;SHT31;55632;51.962;16.116;2023-02-18T07:31:47;7.30;65.77
68648;SHT31;55632;51.962;16.116;2023-02-18T07:36:48;7.42;65.33
68648;SHT31;55632;51.962;16.116;2023-02-18T07:41:48;7.50;64.73
68648;SHT31;55632;51.962;16.116;2023-02-18T07:46:57;7.57;64.12
68648;SHT31;55632;51.962;16.116;2023-02-18T07:52:01;7.62;63.93
68648;SHT31;55632;51.962;16.116;2023-02-18T07:57:05;7.69;63.14
68648;SHT31;55632;51.962;16.116;2023-02-18T08:02:17;7.75;62.93
68648;SHT31;55632;51.962;16.116;2023-02-18T08:07:19;7.83;62.46
68648;SHT31;55632;51.962;16.116;2023-02-18T08:12:21;7.88;61.77
68648;SHT31;55632;51.962;16.116;2023-02-18T08:17:22;7.90;61.82
68648;SHT31;55632;51.962;16.116;2023-02-18T08:22:23;7.95;60.99
68648;SHT31;55632;51.962;16.116;2023-02-18T08:27:24;7.98;60.12
68648;SHT31;55632;51.962;16.116;2023-02-18T08:32:29;8.05;59.46
68648;SHT31;55632;51.962;16.116;2023-02-18T08:37:33;8.08;58.65
68648;SHT31;55632;51.962;16.116;2023-02-18T08:42:34;8.10;58.71
68648;SHT31;55632;51.962;16.116;2023-02-18T08:47:35;8.26;59.37
68648;SHT31;55632;51.962;16.116;2023-02-18T08:52:37;8.36;59.00
68648;SHT31;55632;51.962;16.116;2023-02-18T08:57:38;8.44;59.33
68648;SHT31;55632;51.962;16.116;2023-02-18T09:02:38;8.50;60.11
68648;SHT31;55632;51.962;16.116;2023-02-18T09:07:40;8.63;60.64
68648;SHT31;55632;51.962;16.116;2023-02-18T09:12:40;8.72;61.01
68648;SHT31;55632;51.962;16.116;2023-02-18T09:17:41;8.75;60.86
68648;SHT31;55632;51.962;16.116;2023-02-18T09:22:43;8.77;61.51
68648;SHT31;55632;51.962;16.116;2023-02-18T09:27:43;8.79;61.65
68648;SHT31;55632;51.962;16.116;2023-02-18T09:32:44;8.81;61.41
68648;SHT31;55632;51.962;16.116;2023-02-18T09:37:45;8.81;61.67
68648;SHT31;55632;51.962;16.116;2023-02-18T09:42:46;8.84;61.81
68648;SHT31;55632;51.962;16.116;2023-02-18T09:47:48;8.88;62.21
68648;SHT31;55632;51.962;16.116;2023-02-18T09:52:51;8.92;62.43
68648;SHT31;55632;51.962;16.116;2023-02-18T09:58:07;8.96;62.68
68648;SHT31;55632;51.962;16.116;2023-02-18T10:03:14;9.05;62.69
68648;SHT31;55632;51.962;16.116;2023-02-18T10:08:24;9.08;62.82
68648;SHT31;55632;51.962;16.116;2023-02-18T10:13:29;9.09;62.94
68648;SHT31;55632;51.962;16.116;2023-02-18T10:18:41;9.05;63.96
68648;SHT31;55632;51.962;16.116;2023-02-18T10:23:56;8.93;65.32
68648;SHT31;55632;51.962;16.116;2023-02-18T10:29:00;8.81;66.46
68648;SHT31;55632;51.962;16.116;2023-02-18T10:45:01;8.26;70.74
68648;SHT31;55632;51.962;16.116;2023-02-18T10:50:12;8.16;71.93
68648;SHT31;55632;51.962;16.116;2023-02-18T10:55:18;8.12;72.99
68648;SHT31;55632;51.962;16.116;2023-02-18T11:00:24;8.05;73.77
68648;SHT31;55632;51.962;16.116;2023-02-18T11:05:27;7.99;74.48
68648;SHT31;55632;51.962;16.116;2023-02-18T11:10:33;8.01;75.21
68648;SHT31;55632;51.962;16.116;2023-02-18T11:15:35;7.98;75.65
68648;SHT31;55632;51.962;16.116;2023-02-18T11:20:37;7.99;76.18
68648;SHT31;55632;51.962;16.116;2023-02-18T11:25:40;8.08;76.61
68648;SHT31;55632;51.962;16.116;2023-02-18T11:30:43;8.13;76.93
68648;SHT31;55632;51.962;16.116;2023-02-18T11:35:54;8.19;77.15
68648;SHT31;55632;51.962;16.116;2023-02-18T11:41:01;8.29;77.43
68648;SHT31;55632;51.962;16.116;2023-02-18T11:51:32;8.30;77.49
68648;SHT31;55632;51.962;16.116;2023-02-18T11:56:37;8.29;77.64
68648;SHT31;55632;51.962;16.116;2023-02-18T12:01:50;8.26;77.76
68648;SHT31;55632;51.962;16.116;2023-02-18T12:12:16;8.19;78.10
68648;SHT31;55632;51.962;16.116;2023-02-18T12:17:41;8.13;78.35
68648;SHT31;55632;51.962;16.116;2023-02-18T12:23:19;8.06;78.77
68648;SHT31;55632;51.962;16.116;2023-02-18T13:16:16;7.67;82.34
68648;SHT31;55632;51.962;16.116;2023-02-18T13:21:19;7.62;82.56
68648;SHT31;55632;51.962;16.116;2023-02-18T13:26:21;7.56;83.01
68648;SHT31;55632;51.962;16.116;2023-02-18T13:42:39;7.55;83.81
68648;SHT31;55632;51.962;16.116;2023-02-18T13:47:44;7.46;84.00
68648;SHT31;55632;51.962;16.116;2023-02-18T13:52:45;7.43;84.28
68648;SHT31;55632;51.962;16.116;2023-02-18T13:57:47;7.43;84.60
68648;SHT31;55632;51.962;16.116;2023-02-18T14:03:02;7.40;84.82
68648;SHT31;55632;51.962;16.116;2023-02-18T14:08:35;7.39;85.01
68648;SHT31;55632;51.962;16.116;2023-02-18T14:13:53;7.42;85.22
68648;SHT31;55632;51.962;16.116;2023-02-18T14:18:59;7.40;85.29
68648;SHT31;55632;51.962;16.116;2023-02-18T14:24:12;7.40;85.48
68648;SHT31;55632;51.962;16.116;2023-02-18T14:29:25;7.40;85.44
68648;SHT31;55632;51.962;16.116;2023-02-18T14:34:57;7.36;85.63
68648;SHT31;55632;51.962;16.116;2023-02-18T14:50:45;7.38;85.95
68648;SHT31;55632;51.962;16.116;2023-02-18T14:55:53;7.36;86.19
68648;SHT31;55632;51.962;16.116;2023-02-18T15:00:58;7.32;86.40
68648;SHT31;55632;51.962;16.116;2023-02-18T15:06:38;7.28;86.70
68648;SHT31;55632;51.962;16.116;2023-02-18T15:11:49;7.32;86.95
68648;SHT31;55632;51.962;16.116;2023-02-18T15:16:52;7.33;87.04
68648;SHT31;55632;51.962;16.116;2023-02-18T15:21:55;7.30;87.24
68648;SHT31;55632;51.962;16.116;2023-02-18T15:27:03;7.36;87.42
68648;SHT31;55632;51.962;16.116;2023-02-18T15:32:17;7.35;87.51
68648;SHT31;55632;51.962;16.116;2023-02-18T15:37:19;7.33;87.58
68648;SHT31;55632;51.962;16.116;2023-02-18T15:42:27;7.23;87.64
68648;SHT31;55632;51.962;16.116;2023-02-18T15:47:30;7.12;87.51
68648;SHT31;55632;51.962;16.116;2023-02-18T15:52:37;6.94;87.59
68648;SHT31;55632;51.962;16.116;2023-02-18T15:57:39;6.79;87.82
68648;SHT31;55632;51.962;16.116;2023-02-18T16:02:55;6.65;88.09
68648;SHT31;55632;51.962;16.116;2023-02-18T16:08:00;6.54;88.23
68648;SHT31;55632;51.962;16.116;2023-02-18T16:13:10;6.48;88.53
68648;SHT31;55632;51.962;16.116;2023-02-18T16:18:40;6.41;88.68
68648;SHT31;55632;51.962;16.116;2023-02-18T16:23:42;6.34;88.93
68648;SHT31;55632;51.962;16.116;2023-02-18T16:28:44;6.35;89.22
68648;SHT31;55632;51.962;16.116;2023-02-18T16:33:48;6.26;89.50
68648;SHT31;55632;51.962;16.116;2023-02-18T16:38:50;6.22;89.57
68648;SHT31;55632;51.962;16.116;2023-02-18T16:43:51;6.21;89.79
68648;SHT31;55632;51.962;16.116;2023-02-18T16:48:53;6.28;89.84
68648;SHT31;55632;51.962;16.116;2023-02-18T16:53:55;6.29;89.81
68648;SHT31;55632;51.962;16.116;2023-02-18T16:58:56;6.34;89.80
68648;SHT31;55632;51.962;16.116;2023-02-18T17:03:58;6.32;89.76
68648;SHT31;55632;51.962;16.116;2023-02-18T17:09:00;6.31;89.73
68648;SHT31;55632;51.962;16.116;2023-02-18T17:14:01;6.29;89.75
68648;SHT31;55632;51.962;16.116;2023-02-18T17:19:05;6.26;89.76
68648;SHT31;55632;51.962;16.116;2023-02-18T17:24:05;6.26;89.77
68648;SHT31;55632;51.962;16.116;2023-02-18T17:29:07;6.24;89.80
68648;SHT31;55632;51.962;16.116;2023-02-18T17:34:15;6.21;89.81
68648;SHT31;55632;51.962;16.116;2023-02-18T17:39:19;6.20;89.80
68648;SHT31;55632;51.962;16.116;2023-02-18T17:44:22;6.14;89.84
68648;SHT31;55632;51.962;16.116;2023-02-18T17:49:26;6.10;89.91
68648;SHT31;55632;51.962;16.116;2023-02-18T17:54:26;6.06;90.01
68648;SHT31;55632;51.962;16.116;2023-02-18T17:59:27;6.03;90.08
68648;SHT31;55632;51.962;16.116;2023-02-18T18:04:30;6.04;90.08
68648;SHT31;55632;51.962;16.116;2023-02-18T18:09:31;6.00;90.13
68648;SHT31;55632;51.962;16.116;2023-02-18T18:14:32;5.97;90.17
68648;SHT31;55632;51.962;16.116;2023-02-18T18:19:35;5.96;90.19
68648;SHT31;55632;51.962;16.116;2023-02-18T18:24:37;5.93;90.20
68648;SHT31;55632;51.962;16.116;2023-02-18T18:29:38;5.89;90.26
68648;SHT31;55632;51.962;16.116;2023-02-18T18:34:42;5.89;90.16
68648;SHT31;55632;51.962;16.116;2023-02-18T18:39:43;5.86;90.04
68648;SHT31;55632;51.962;16.116;2023-02-18T18:44:48;5.80;89.95
68648;SHT31;55632;51.962;16.116;2023-02-18T18:49:51;5.74;89.94
68648;SHT31;55632;51.962;16.116;2023-02-18T18:54:52;5.72;89.95
68648;SHT31;55632;51.962;16.116;2023-02-18T18:59:55;5.67;89.92
68648;SHT31;55632;51.962;16.116;2023-02-18T19:04:56;5.62;89.90
68648;SHT31;55632;51.962;16.116;2023-02-18T19:10:00;5.62;89.93
68648;SHT31;55632;51.962;16.116;2023-02-18T19:15:04;5.59;89.97
68648;SHT31;55632;51.962;16.116;2023-02-18T19:20:05;5.58;90.02
68648;SHT31;55632;51.962;16.116;2023-02-18T19:25:06;5.56;90.03
68648;SHT31;55632;51.962;16.116;2023-02-18T19:30:14;5.52;90.06
68648;SHT31;55632;51.962;16.116;2023-02-18T19:35:17;5.51;90.13
68648;SHT31;55632;51.962;16.116;2023-02-18T19:40:20;5.52;90.19
68648;SHT31;55632;51.962;16.116;2023-02-18T19:45:24;5.51;90.11
68648;SHT31;55632;51.962;16.116;2023-02-18T19:50:26;5.45;90.13
68648;SHT31;55632;51.962;16.116;2023-02-18T19:55:28;5.44;90.11
68648;SHT31;55632;51.962;16.116;2023-02-18T20:00:29;5.37;90.13
68648;SHT31;55632;51.962;16.116;2023-02-18T20:05:30;5.37;90.25
68648;SHT31;55632;51.962;16.116;2023-02-18T20:10:34;5.34;90.31
68648;SHT31;55632;51.962;16.116;2023-02-18T20:15:35;5.30;90.36
68648;SHT31;55632;51.962;16.116;2023-02-18T20:20:35;5.26;90.44
68648;SHT31;55632;51.962;16.116;2023-02-18T20:25:37;5.23;90.35
68648;SHT31;55632;51.962;16.116;2023-02-18T20:30:38;5.18;90.31
68648;SHT31;55632;51.962;16.116;2023-02-18T20:35:39;5.07;90.37
68648;SHT31;55632;51.962;16.116;2023-02-18T20:40:40;5.06;90.42
68648;SHT31;55632;51.962;16.116;2023-02-18T20:45:40;4.97;90.51
68648;SHT31;55632;51.962;16.116;2023-02-18T20:50:44;4.97;90.44
68648;SHT31;55632;51.962;16.116;2023-02-18T20:55:47;4.90;90.48
68648;SHT31;55632;51.962;16.116;2023-02-18T21:00:59;4.94;90.45
68648;SHT31;55632;51.962;16.116;2023-02-18T21:06:10;4.90;90.43
68648;SHT31;55632;51.962;16.116;2023-02-18T21:11:19;4.90;90.49
68648;SHT31;55632;51.962;16.116;2023-02-18T21:16:23;4.87;90.49
68648;SHT31;55632;51.962;16.116;2023-02-18T21:21:27;4.89;90.60
68648;SHT31;55632;51.962;16.116;2023-02-18T21:26:30;4.89;90.62
68648;SHT31;55632;51.962;16.116;2023-02-18T21:31:38;4.90;90.63
68648;SHT31;55632;51.962;16.116;2023-02-18T21:36:40;4.90;90.63
68648;SHT31;55632;51.962;16.116;2023-02-18T21:41:42;4.94;90.67
68648;SHT31;55632;51.962;16.116;2023-02-18T21:46:43;4.93;90.72
68648;SHT31;55632;51.962;16.116;2023-02-18T21:51:45;4.93;90.64
68648;SHT31;55632;51.962;16.116;2023-02-18T21:57:18;4.94;90.71
68648;SHT31;55632;51.962;16.116;2023-02-18T22:02:20;4.93;90.66
68648;SHT31;55632;51.962;16.116;2023-02-18T22:07:23;4.90;90.64
68648;SHT31;55632;51.962;16.116;2023-02-18T22:12:24;4.87;90.63
68648;SHT31;55632;51.962;16.116;2023-02-18T22:17:25;4.86;90.70
68648;SHT31;55632;51.962;16.116;2023-02-18T22:22:29;4.86;90.69
68648;SHT31;55632;51.962;16.116;2023-02-18T22:27:30;4.83;90.69
68648;SHT31;55632;51.962;16.116;2023-02-18T22:32:34;4.77;90.74
68648;SHT31;55632;51.962;16.116;2023-02-18T22:37:35;4.75;90.74
68648;SHT31;55632;51.962;16.116;2023-02-18T22:42:36;4.75;90.79
68648;SHT31;55632;51.962;16.116;2023-02-18T22:47:40;4.71;90.90
68648;SHT31;55632;51.962;16.116;2023-02-18T22:52:43;4.73;90.98
68648;SHT31;55632;51.962;16.116;2023-02-18T22:57:44;4.76;91.04
68648;SHT31;55632;51.962;16.116;2023-02-18T23:02:49;4.72;91.07
68648;SHT31;55632;51.962;16.116;2023-02-18T23:07:49;4.73;91.08
68648;SHT31;55632;51.962;16.116;2023-02-18T23:12:50;4.77;91.17
68648;SHT31;55632;51.962;16.116;2023-02-18T23:17:52;4.77;91.21
68648;SHT31;55632;51.962;16.116;2023-02-18T23:22:58;4.77;91.22
68648;SHT31;55632;51.962;16.116;2023-02-18T23:28:01;4.83;91.29
68648;SHT31;55632;51.962;16.116;2023-02-18T23:33:07;4.85;91.32
68648;SHT31;55632;51.962;16.116;2023-02-18T23:38:10;4.89;91.40
68648;SHT31;55632;51.962;16.116;2023-02-18T23:43:13;4.87;91.57
68648;SHT31;55632;51.962;16.116;2023-02-18T23:48:14;4.92;91.47
68648;SHT31;55632;51.962;16.116;2023-02-18T23:53:16;4.94;91.56
68648;SHT31;55632;51.962;16.116;2023-02-18T23:58:17;4.99;91.74
